createdAt,value
2018-05-09T00:00:10.378Z,80.47
2018-05-09T00:01:10.383Z,80.47
2018-05-09T00:02:10.388Z,80.18
2018-05-09T00:03:10.391Z,80.37
2018-05-09T00:04:10.395Z,80.56
2018-05-09T00:05:10.398Z,80.56
2018-05-09T00:06:10.403Z,80.85
2018-05-09T00:07:10.407Z,80.76
2018-05-09T00:08:10.410Z,80.76
2018-05-09T00:09:10.416Z,81.43
2018-05-09T00:10:10.420Z,81.43
2018-05-09T00:11:10.422Z,82.48
2018-05-09T00:12:10.427Z,83.30
2018-05-09T00:13:10.429Z,82.73
2018-05-09T00:14:10.434Z,83.01
2018-05-09T00:15:10.441Z,83.20
2018-05-09T00:16:10.440Z,83.68
2018-05-09T00:17:10.444Z,84.06
2018-05-09T00:18:10.448Z,83.59
2018-05-09T00:19:10.452Z,84.06
2018-05-09T00:20:10.457Z,84.92
2018-05-09T00:21:10.495Z,85.98
2018-05-09T00:22:10.463Z,85.31
2018-05-09T00:23:10.467Z,85.79
2018-05-09T00:24:10.470Z,85.88
2018-05-09T00:25:10.476Z,86.36
2018-05-09T00:26:10.480Z,86.55
2018-05-09T00:27:10.481Z,86.74
2018-05-09T00:28:10.484Z,86.94
2018-05-09T00:29:10.488Z,87.70
2018-05-09T00:30:10.492Z,88.76
2018-05-09T00:31:10.495Z,88.56
2018-05-09T00:32:10.499Z,88.09
2018-05-09T00:33:10.505Z,88.37
2018-05-09T00:34:10.506Z,88.52
2018-05-09T00:35:10.519Z,87.85
2018-05-09T00:36:10.513Z,88.43
2018-05-09T00:37:10.517Z,88.23
2018-05-09T00:38:10.520Z,88.71
2018-05-09T00:39:10.524Z,88.81
2018-05-09T00:40:10.527Z,88.33
2018-05-09T00:41:10.531Z,88.37
2018-05-09T00:42:10.540Z,88.90
2018-05-09T00:43:10.538Z,88.04
2018-05-09T00:44:10.540Z,88.90
2018-05-09T00:45:10.544Z,88.33
2018-05-09T00:46:10.548Z,88.62
2018-05-09T00:47:10.552Z,89.29
2018-05-09T00:48:10.554Z,90.15
2018-05-09T00:49:10.558Z,90.34
2018-05-09T00:50:10.616Z,90.63
2018-05-09T00:51:10.565Z,91.87
2018-05-09T00:52:10.568Z,91.87
2018-05-09T00:53:10.572Z,91.77
2018-05-09T00:54:10.575Z,91.97
2018-05-09T00:55:10.578Z,92.54
2018-05-09T00:56:10.580Z,92.44
2018-05-09T00:57:10.584Z,92.88
2018-05-09T00:58:10.587Z,93.45
2018-05-09T00:59:10.591Z,93.02
2018-05-09T01:00:10.593Z,93.64
2018-05-09T01:01:10.596Z,93.64
2018-05-09T01:02:10.601Z,94.21
2018-05-09T01:03:10.604Z,94.50
2018-05-09T01:04:10.606Z,95.17
2018-05-09T01:05:10.610Z,95.94
2018-05-09T01:06:10.625Z,95.36
2018-05-09T01:07:10.617Z,96.51
2018-05-09T01:08:10.618Z,96.70
2018-05-09T01:09:10.622Z,97.08
2018-05-09T01:10:10.628Z,97.18
2018-05-09T01:11:10.629Z,97.08
2018-05-09T01:12:10.631Z,97.85
2018-05-09T01:13:10.634Z,97.28
2018-05-09T01:14:10.637Z,97.08
2018-05-09T01:15:10.641Z,97.47
2018-05-09T01:16:10.642Z,97.85
2018-05-09T01:17:10.645Z,98.43
2018-05-09T01:18:10.649Z,98.43
2018-05-09T01:19:10.652Z,98.43
2018-05-09T01:20:10.655Z,99.86
2018-05-09T01:21:10.657Z,99.99
2018-05-09T01:22:10.660Z,99.99
2018-05-09T01:23:10.664Z,99.99
2018-05-09T01:24:10.666Z,99.99
2018-05-09T01:25:10.670Z,99.99
2018-05-09T01:26:10.671Z,99.99
2018-05-09T01:27:10.673Z,99.99
2018-05-09T01:28:10.676Z,99.99
2018-05-09T01:29:10.678Z,99.99
2018-05-09T01:30:10.683Z,99.99
2018-05-09T01:31:10.685Z,99.99
2018-05-09T01:32:10.690Z,99.99
2018-05-09T01:33:10.689Z,99.99
2018-05-09T01:34:10.692Z,99.99
2018-05-09T01:35:10.696Z,99.99
2018-05-09T01:36:10.697Z,99.99
2018-05-09T01:37:10.705Z,99.99
2018-05-09T01:38:10.703Z,99.99
2018-05-09T01:39:10.706Z,99.99
2018-05-09T01:40:10.708Z,99.99
2018-05-09T01:41:10.711Z,99.99
2018-05-09T01:42:10.713Z,99.99
2018-05-09T01:43:10.717Z,99.99
2018-05-09T01:44:10.722Z,99.99
2018-05-09T01:45:10.721Z,99.99
2018-05-09T01:46:10.724Z,99.99
2018-05-09T01:47:10.727Z,99.99
2018-05-09T01:48:10.729Z,99.99
2018-05-09T01:49:10.733Z,99.99
2018-05-09T01:50:10.734Z,99.99
2018-05-09T01:51:10.738Z,99.99
2018-05-09T01:52:10.739Z,99.99
2018-05-09T01:53:10.742Z,99.99
2018-05-09T01:54:10.745Z,99.99
2018-05-09T01:55:10.747Z,99.99
2018-05-09T01:56:10.749Z,99.99
2018-05-09T01:57:10.750Z,99.99
2018-05-09T01:58:10.755Z,99.99
2018-05-09T01:59:10.757Z,99.99
2018-05-09T02:00:10.759Z,99.99
2018-05-09T02:01:10.761Z,99.99
2018-05-09T02:02:10.767Z,99.99
2018-05-09T02:03:10.766Z,99.99
2018-05-09T02:04:10.768Z,99.99
2018-05-09T02:05:10.770Z,99.99
2018-05-09T02:06:10.829Z,99.99
2018-05-09T02:07:10.776Z,99.99
2018-05-09T02:08:10.777Z,99.99
2018-05-09T02:09:10.778Z,99.99
2018-05-09T02:10:10.782Z,99.99
2018-05-09T02:11:10.790Z,99.99
2018-05-09T02:12:10.786Z,99.99
2018-05-09T02:13:10.792Z,99.99
2018-05-09T02:14:10.799Z,99.99
2018-05-09T02:15:10.841Z,99.99
2018-05-09T02:16:10.796Z,99.99
2018-05-09T02:17:10.802Z,99.99
2018-05-09T02:18:10.800Z,99.99
2018-05-09T02:19:10.804Z,99.99
2018-05-09T02:20:10.804Z,99.99
2018-05-09T02:21:10.807Z,99.99
2018-05-09T02:22:10.809Z,99.99
2018-05-09T02:23:10.811Z,99.99
2018-05-09T02:24:10.930Z,99.99
2018-05-09T02:25:10.816Z,99.99
2018-05-09T02:26:10.817Z,99.99
2018-05-09T02:27:10.820Z,99.99
2018-05-09T02:28:10.822Z,99.99
2018-05-09T02:29:10.825Z,99.99
2018-05-09T02:30:10.832Z,99.99
2018-05-09T02:31:10.859Z,99.99
2018-05-09T02:32:10.831Z,99.99
2018-05-09T02:33:10.832Z,99.99
2018-05-09T02:34:10.836Z,99.99
2018-05-09T02:35:10.837Z,99.99
2018-05-09T02:36:10.840Z,99.99
2018-05-09T02:37:10.844Z,99.99
2018-05-09T02:38:10.846Z,99.99
2018-05-09T02:39:10.848Z,99.99
2018-05-09T02:40:10.849Z,99.99
2018-05-09T02:41:10.855Z,99.99
2018-05-09T02:42:10.854Z,99.99
2018-05-09T02:43:10.854Z,99.99
2018-05-09T02:44:10.856Z,99.99
2018-05-09T02:45:10.858Z,99.99
2018-05-09T02:46:10.861Z,99.99
2018-05-09T02:47:10.862Z,99.99
2018-05-09T02:48:10.865Z,99.99
2018-05-09T02:49:10.866Z,99.99
2018-05-09T02:50:10.872Z,99.99
2018-05-09T02:51:10.870Z,99.99
2018-05-09T02:52:10.872Z,99.99
2018-05-09T02:53:10.878Z,99.99
2018-05-09T02:54:10.879Z,99.99
2018-05-09T02:55:10.878Z,99.99
2018-05-09T02:56:10.880Z,99.99
2018-05-09T02:57:10.882Z,99.99
2018-05-09T02:58:10.888Z,99.99
2018-05-09T02:59:10.886Z,99.99
2018-05-09T03:00:10.888Z,99.99
2018-05-09T03:01:10.890Z,99.99
2018-05-09T03:02:10.893Z,99.99
2018-05-09T03:03:10.894Z,99.99
2018-05-09T03:04:10.895Z,99.99
2018-05-09T03:05:10.896Z,99.99
2018-05-09T03:06:10.899Z,99.99
2018-05-09T03:07:10.901Z,99.99
2018-05-09T03:08:10.902Z,99.99
2018-05-09T03:09:10.903Z,99.99
2018-05-09T03:10:10.907Z,99.99
2018-05-09T03:11:10.912Z,99.99
2018-05-09T03:12:10.909Z,99.99
2018-05-09T03:13:10.912Z,99.99
2018-05-09T03:14:10.915Z,99.99
2018-05-09T03:15:10.915Z,99.99
2018-05-09T03:16:10.920Z,99.99
2018-05-09T03:17:10.918Z,99.99
2018-05-09T03:18:10.920Z,99.99
2018-05-09T03:19:10.922Z,99.99
2018-05-09T03:20:10.922Z,99.99
2018-05-09T03:21:10.931Z,99.99
2018-05-09T03:22:10.932Z,99.99
2018-05-09T03:23:10.929Z,99.99
2018-05-09T03:24:10.930Z,99.99
2018-05-09T03:25:10.932Z,99.99
2018-05-09T03:26:10.933Z,99.99
2018-05-09T03:27:10.935Z,99.99
2018-05-09T03:28:10.937Z,99.99
2018-05-09T03:29:10.938Z,99.99
2018-05-09T03:30:10.945Z,99.99
2018-05-09T03:31:10.946Z,99.99
2018-05-09T03:32:10.946Z,99.99
2018-05-09T03:33:10.947Z,99.99
2018-05-09T03:34:10.954Z,99.99
2018-05-09T03:35:10.950Z,99.99
2018-05-09T03:36:10.951Z,99.99
2018-05-09T03:37:10.954Z,99.99
2018-05-09T03:38:10.954Z,99.99
2018-05-09T03:39:10.958Z,99.99
2018-05-09T03:40:10.957Z,99.99
2018-05-09T03:41:10.967Z,99.99
2018-05-09T03:42:10.961Z,99.99
2018-05-09T03:43:10.964Z,99.99
2018-05-09T03:44:10.965Z,99.99
2018-05-09T03:45:10.967Z,99.99
2018-05-09T03:46:10.969Z,99.99
2018-05-09T03:47:10.971Z,99.99
2018-05-09T03:48:10.972Z,99.99
2018-05-09T03:49:10.973Z,99.99
2018-05-09T03:50:10.975Z,99.99
2018-05-09T03:51:10.977Z,99.99
2018-05-09T03:52:10.979Z,99.99
2018-05-09T03:53:11.015Z,99.99
2018-05-09T03:54:10.982Z,99.99
2018-05-09T03:55:10.984Z,99.99
2018-05-09T03:56:10.985Z,99.99
2018-05-09T03:57:10.987Z,99.99
2018-05-09T03:58:10.989Z,99.99
2018-05-09T03:59:10.990Z,99.99
2018-05-09T04:00:10.996Z,99.99
2018-05-09T04:01:10.993Z,99.99
2018-05-09T04:02:10.996Z,99.99
2018-05-09T04:03:10.997Z,99.99
2018-05-09T04:04:10.999Z,99.99
2018-05-09T04:05:11.000Z,99.99
2018-05-09T04:06:11.003Z,99.99
2018-05-09T04:07:11.004Z,99.99
2018-05-09T04:08:11.006Z,99.99
2018-05-09T04:09:11.007Z,99.99
2018-05-09T04:10:11.009Z,99.99
2018-05-09T04:11:11.011Z,99.99
2018-05-09T04:12:11.010Z,99.99
2018-05-09T04:13:11.017Z,99.99
2018-05-09T04:14:11.015Z,99.99
2018-05-09T04:15:11.016Z,99.99
2018-05-09T04:16:11.017Z,99.99
2018-05-09T04:17:11.020Z,99.99
2018-05-09T04:18:11.021Z,99.99
2018-05-09T04:19:11.023Z,99.99
2018-05-09T04:20:11.023Z,99.99
2018-05-09T04:21:11.026Z,99.99
2018-05-09T04:22:11.028Z,99.99
2018-05-09T04:23:11.032Z,99.99
2018-05-09T04:24:11.032Z,99.99
2018-05-09T04:25:11.032Z,99.99
2018-05-09T04:26:11.033Z,99.99
2018-05-09T04:27:11.036Z,99.99
2018-05-09T04:28:11.111Z,99.99
2018-05-09T04:29:11.038Z,99.99
2018-05-09T04:30:11.041Z,99.99
2018-05-09T04:31:11.042Z,99.99
2018-05-09T04:32:11.043Z,99.99
2018-05-09T04:33:11.045Z,99.99
2018-05-09T04:34:11.047Z,99.99
2018-05-09T04:35:11.049Z,99.99
2018-05-09T04:36:11.073Z,99.99
2018-05-09T04:37:11.051Z,99.99
2018-05-09T04:38:11.053Z,99.99
2018-05-09T04:39:11.055Z,99.99
2018-05-09T04:40:11.054Z,99.99
2018-05-09T04:41:11.057Z,99.99
2018-05-09T04:42:11.063Z,99.99
2018-05-09T04:43:11.061Z,99.99
2018-05-09T04:44:11.061Z,99.99
2018-05-09T04:45:11.068Z,99.99
2018-05-09T04:46:11.065Z,99.99
2018-05-09T04:47:11.067Z,99.99
2018-05-09T04:48:11.067Z,99.99
2018-05-09T04:49:11.112Z,99.99
2018-05-09T04:50:11.070Z,99.99
2018-05-09T04:51:11.130Z,99.99
2018-05-09T04:52:11.073Z,99.99
2018-05-09T04:53:11.075Z,99.99
2018-05-09T04:54:11.079Z,99.99
2018-05-09T04:55:11.078Z,99.99
2018-05-09T04:56:11.079Z,99.99
2018-05-09T04:57:11.082Z,99.99
2018-05-09T04:58:11.084Z,99.99
2018-05-09T04:59:11.087Z,99.99
2018-05-09T05:00:11.087Z,99.99
2018-05-09T05:01:11.091Z,99.99
2018-05-09T05:02:11.090Z,99.99
2018-05-09T05:03:11.093Z,99.99
2018-05-09T05:04:11.094Z,99.99
2018-05-09T05:05:11.095Z,99.99
2018-05-09T05:06:11.097Z,99.99
2018-05-09T05:07:11.099Z,99.99
2018-05-09T05:08:11.100Z,99.99
2018-05-09T05:09:11.103Z,99.99
2018-05-09T05:10:11.104Z,99.99
2018-05-09T05:11:11.111Z,99.99
2018-05-09T05:12:11.107Z,99.99
2018-05-09T05:13:11.110Z,99.99
2018-05-09T05:14:11.112Z,99.99
2018-05-09T05:15:11.116Z,99.99
2018-05-09T05:16:11.120Z,99.99
2018-05-09T05:17:11.119Z,99.99
2018-05-09T05:18:11.121Z,99.99
2018-05-09T05:19:11.124Z,99.99
2018-05-09T05:20:11.124Z,99.99
2018-05-09T05:21:11.126Z,99.99
2018-05-09T05:22:11.129Z,99.99
2018-05-09T05:23:11.133Z,99.99
2018-05-09T05:24:11.132Z,99.99
2018-05-09T05:25:11.138Z,99.99
2018-05-09T05:26:11.139Z,99.99
2018-05-09T05:27:11.182Z,99.99
2018-05-09T05:28:11.143Z,99.99
2018-05-09T05:29:11.146Z,99.99
2018-05-09T05:30:11.147Z,99.99
2018-05-09T05:31:11.151Z,99.99
2018-05-09T05:32:11.153Z,99.99
2018-05-09T05:33:11.155Z,99.99
2018-05-09T05:34:11.158Z,99.99
2018-05-09T05:35:11.166Z,99.99
2018-05-09T05:36:11.163Z,99.99
2018-05-09T05:37:11.166Z,99.99
2018-05-09T05:38:11.176Z,99.99
2018-05-09T05:39:11.172Z,99.99
2018-05-09T05:40:11.174Z,99.99
2018-05-09T05:41:11.176Z,99.99
2018-05-09T05:42:11.180Z,99.99
2018-05-09T05:43:11.183Z,99.99
2018-05-09T05:44:11.184Z,99.99
2018-05-09T05:45:11.314Z,99.99
2018-05-09T05:46:11.192Z,99.99
2018-05-09T05:47:11.236Z,98.14
2018-05-09T05:48:11.196Z,97.95
2018-05-09T05:49:11.200Z,99.49
2018-05-09T05:50:11.203Z,99.49
2018-05-09T05:51:11.206Z,97.09
2018-05-09T05:52:11.209Z,97.66
2018-05-09T05:53:11.212Z,97.47
2018-05-09T05:54:11.215Z,95.94
2018-05-09T05:55:11.218Z,95.17
2018-05-09T05:56:11.310Z,93.77
2018-05-09T05:57:11.225Z,93.30
2018-05-09T05:58:11.228Z,93.97
2018-05-09T05:59:11.231Z,94.16
2018-05-09T06:00:11.234Z,92.43
2018-05-09T06:01:11.241Z,91.47
2018-05-09T06:02:11.242Z,91.28
2018-05-09T06:03:11.245Z,91.47
2018-05-09T06:04:11.252Z,91.38
2018-05-09T06:05:11.252Z,90.94
2018-05-09T06:06:11.255Z,89.50
2018-05-09T06:07:11.259Z,89.89
2018-05-09T06:08:11.261Z,89.46
2018-05-09T06:09:11.266Z,89.12
2018-05-09T06:10:11.272Z,88.83
2018-05-09T06:11:11.273Z,88.64
2018-05-09T06:12:11.277Z,88.83
2018-05-09T06:13:11.280Z,88.93
2018-05-09T06:14:11.290Z,87.58
2018-05-09T06:15:11.295Z,87.19
2018-05-09T06:16:11.291Z,87.15
2018-05-09T06:17:11.386Z,86.09
2018-05-09T06:18:11.300Z,87.10
2018-05-09T06:19:11.304Z,86.91
2018-05-09T06:20:11.307Z,87.29
2018-05-09T06:21:11.310Z,87.34
2018-05-09T06:22:11.315Z,86.76
2018-05-09T06:23:11.320Z,86.85
2018-05-09T06:24:11.397Z,86.28
2018-05-09T06:25:11.329Z,87.05
2018-05-09T06:26:11.331Z,87.05
2018-05-09T06:27:11.339Z,86.85
2018-05-09T06:28:11.338Z,87.29
2018-05-09T06:29:11.343Z,87.19
2018-05-09T06:30:11.348Z,87.57
2018-05-09T06:31:11.351Z,84.78
2018-05-09T06:32:11.354Z,84.11
2018-05-09T06:33:11.359Z,84.21
2018-05-09T06:34:11.364Z,84.21
2018-05-09T06:35:11.370Z,83.63
2018-05-09T06:36:11.373Z,84.30
2018-05-09T06:37:11.381Z,83.53
2018-05-09T06:38:11.382Z,84.30
2018-05-09T06:39:11.387Z,83.96
2018-05-09T06:40:11.389Z,83.77
2018-05-09T06:41:11.395Z,83.09
2018-05-09T06:42:11.398Z,81.56
2018-05-09T06:43:11.404Z,80.60
2018-05-09T06:44:11.408Z,80.40
2018-05-09T06:45:11.413Z,79.15
2018-05-09T06:46:11.418Z,76.75
2018-05-09T06:47:11.423Z,76.69
2018-05-09T06:48:11.427Z,76.21
2018-05-09T06:49:11.431Z,75.05
2018-05-09T06:50:11.437Z,74.76
2018-05-09T06:51:11.441Z,74.86
2018-05-09T06:52:11.444Z,74.48
2018-05-09T06:53:11.450Z,73.99
2018-05-09T06:54:11.461Z,74.96
2018-05-09T06:55:11.460Z,76.50
2018-05-09T06:56:11.465Z,76.40
2018-05-09T06:57:11.474Z,76.59
2018-05-09T06:58:11.475Z,74.67
2018-05-09T06:59:11.481Z,74.03
2018-05-09T07:00:11.485Z,73.94
2018-05-09T07:01:11.490Z,75.48
2018-05-09T07:02:11.495Z,73.36
2018-05-09T07:03:11.502Z,71.14
2018-05-09T07:04:11.506Z,71.14
2018-05-09T07:05:11.512Z,70.66
2018-05-09T07:06:11.545Z,70.09
2018-05-09T07:07:11.521Z,69.51
2018-05-09T07:08:11.525Z,70.28
2018-05-09T07:09:11.531Z,70.47
2018-05-09T07:10:11.537Z,69.51
2018-05-09T07:11:11.541Z,68.84
2018-05-09T07:12:11.546Z,69.31
2018-05-09T07:13:11.553Z,70.09
2018-05-09T07:14:11.558Z,69.79
2018-05-09T07:15:11.563Z,69.60
2018-05-09T07:16:11.569Z,69.54
2018-05-09T07:17:11.574Z,68.77
2018-05-09T07:18:11.579Z,68.96
2018-05-09T07:19:11.585Z,68.96
2018-05-09T07:20:11.590Z,69.93
2018-05-09T07:21:11.599Z,70.31
2018-05-09T07:22:11.674Z,68.87
2018-05-09T07:23:11.636Z,68.10
2018-05-09T07:24:11.613Z,69.73
2018-05-09T07:25:11.617Z,68.99
2018-05-09T07:26:11.622Z,67.74
2018-05-09T07:27:11.629Z,68.42
2018-05-09T07:28:11.638Z,68.04
2018-05-09T07:29:11.640Z,66.11
2018-05-09T07:30:11.646Z,66.20
2018-05-09T07:31:11.652Z,66.01
2018-05-09T07:32:11.662Z,65.75
2018-05-09T07:33:11.661Z,66.33
2018-05-09T07:34:11.671Z,66.30
2018-05-09T07:35:11.678Z,67.30
2018-05-09T07:36:11.680Z,67.10
2018-05-09T07:37:11.685Z,67.00
2018-05-09T07:38:11.692Z,67.58
2018-05-09T07:39:11.700Z,68.55
2018-05-09T07:40:11.704Z,67.00
2018-05-09T07:41:11.709Z,66.52
2018-05-09T07:42:11.797Z,66.24
2018-05-09T07:43:11.723Z,66.33
2018-05-09T07:44:11.728Z,64.89
2018-05-09T07:45:11.733Z,65.69
2018-05-09T07:46:11.741Z,65.78
2018-05-09T07:47:11.747Z,64.63
2018-05-09T07:48:11.752Z,63.95
2018-05-09T07:49:11.759Z,63.50
2018-05-09T07:50:11.766Z,62.47
2018-05-09T07:51:11.773Z,61.51
2018-05-09T07:52:11.778Z,61.54
2018-05-09T07:53:11.785Z,60.02
2018-05-09T07:54:11.794Z,57.50
2018-05-09T07:55:11.803Z,54.19
2018-05-09T07:56:11.811Z,52.18
2018-05-09T07:57:11.820Z,50.56
2018-05-09T07:58:11.830Z,50.48
2018-05-09T07:59:11.840Z,49.90
2018-05-09T08:00:11.849Z,49.12
2018-05-09T08:01:11.861Z,50.26
2018-05-09T08:02:11.872Z,50.62
2018-05-09T08:03:11.884Z,49.95
2018-05-09T08:04:11.896Z,48.85
2018-05-09T08:05:11.907Z,47.05
2018-05-09T08:06:11.921Z,45.72
2018-05-09T08:07:11.937Z,45.35
2018-05-09T08:08:11.946Z,44.57
2018-05-09T08:09:11.962Z,44.01
2018-05-09T08:10:11.972Z,43.96
2018-05-09T08:11:11.986Z,45.06
2018-05-09T08:12:11.998Z,43.62
2018-05-09T08:13:12.014Z,43.77
2018-05-09T08:14:12.027Z,45.04
2018-05-09T08:15:12.041Z,44.16
2018-05-09T08:16:12.059Z,45.04
2018-05-09T08:17:12.069Z,44.62
2018-05-09T08:18:12.085Z,45.01
2018-05-09T08:19:12.100Z,43.58
2018-05-09T08:20:12.119Z,43.58
2018-05-09T08:21:12.129Z,43.75
2018-05-09T08:22:12.146Z,43.58
2018-05-09T08:23:12.160Z,42.38
2018-05-09T08:24:12.175Z,41.86
2018-05-09T08:25:12.190Z,41.75
2018-05-09T08:26:12.206Z,42.84
2018-05-09T08:27:12.222Z,43.40
2018-05-09T08:28:12.238Z,43.60
2018-05-09T08:29:12.254Z,43.43
2018-05-09T08:30:12.272Z,42.74
2018-05-09T08:31:12.286Z,42.35
2018-05-09T08:32:12.301Z,41.89
2018-05-09T08:33:12.317Z,41.79
2018-05-09T08:34:12.334Z,41.89
2018-05-09T08:35:12.351Z,41.38
2018-05-09T08:36:12.383Z,41.42
2018-05-09T08:37:12.384Z,41.13
2018-05-09T08:38:12.400Z,40.06
2018-05-09T08:39:12.418Z,39.67
2018-05-09T08:40:12.433Z,41.42
2018-05-09T08:41:12.450Z,40.95
2018-05-09T08:42:12.468Z,41.15
2018-05-09T08:43:12.511Z,41.25
2018-05-09T08:44:12.500Z,41.36
2018-05-09T08:45:12.519Z,39.69
2018-05-09T08:46:12.537Z,39.96
2018-05-09T08:47:12.555Z,39.98
2018-05-09T08:48:12.570Z,39.67
2018-05-09T08:49:12.590Z,39.57
2018-05-09T08:50:12.609Z,40.91
2018-05-09T08:51:12.624Z,41.28
2018-05-09T08:52:12.641Z,41.36
2018-05-09T08:53:12.659Z,42.99
2018-05-09T08:54:12.681Z,43.07
2018-05-09T08:55:12.695Z,43.70
2018-05-09T08:56:12.711Z,41.77
2018-05-09T08:57:12.731Z,40.55
2018-05-09T08:58:12.748Z,40.81
2018-05-09T08:59:12.767Z,40.39
2018-05-09T09:00:12.783Z,40.62
2018-05-09T09:01:12.802Z,39.86
2018-05-09T09:02:12.819Z,38.82
2018-05-09T09:03:12.838Z,37.67
2018-05-09T09:04:12.855Z,37.30
2018-05-09T09:05:12.873Z,36.91
2018-05-09T09:06:12.892Z,37.29
2018-05-09T09:07:12.910Z,37.87
2018-05-09T09:08:12.928Z,37.29
2018-05-09T09:09:12.945Z,39.02
2018-05-09T09:10:12.964Z,39.12
2018-05-09T09:11:12.982Z,38.35
2018-05-09T09:12:13.000Z,37.50
2018-05-09T09:13:13.018Z,38.65
2018-05-09T09:14:13.037Z,38.92
2018-05-09T09:15:13.076Z,38.73
2018-05-09T09:16:13.074Z,39.62
2018-05-09T09:17:13.091Z,38.45
2018-05-09T09:18:13.114Z,37.60
2018-05-09T09:19:13.143Z,37.30
2018-05-09T09:20:13.146Z,38.40
2018-05-09T09:21:13.164Z,37.89
2018-05-09T09:22:13.183Z,36.72
2018-05-09T09:23:13.201Z,36.91
2018-05-09T09:24:13.218Z,38.14
2018-05-09T09:25:13.237Z,39.00
2018-05-09T09:26:13.255Z,38.82
2018-05-09T09:27:13.280Z,38.26
2018-05-09T09:28:13.290Z,37.73
2018-05-09T09:29:13.413Z,38.30
2018-05-09T09:30:13.328Z,38.89
2018-05-09T09:31:13.346Z,39.55
2018-05-09T09:32:13.363Z,39.20
2018-05-09T09:33:13.381Z,39.76
2018-05-09T09:34:13.399Z,39.10
2018-05-09T09:35:13.418Z,37.40
2018-05-09T09:36:13.435Z,35.75
2018-05-09T09:37:13.453Z,35.79
2018-05-09T09:38:13.472Z,34.77
2018-05-09T09:39:13.490Z,33.61
2018-05-09T09:40:13.507Z,33.70
2018-05-09T09:41:13.526Z,35.73
2018-05-09T09:42:13.545Z,35.89
2018-05-09T09:43:13.562Z,35.27
2018-05-09T09:44:13.580Z,35.06
2018-05-09T09:45:13.597Z,34.88
2018-05-09T09:46:13.616Z,34.81
2018-05-09T09:47:13.634Z,34.01
2018-05-09T09:48:13.651Z,34.39
2018-05-09T09:49:13.671Z,35.17
2018-05-09T09:50:13.689Z,36.24
2018-05-09T09:51:13.707Z,36.63
2018-05-09T09:52:13.725Z,36.73
2018-05-09T09:53:13.743Z,35.55
2018-05-09T09:54:13.762Z,35.56
2018-05-09T09:55:13.780Z,34.62
2018-05-09T09:56:13.855Z,34.31
2018-05-09T09:57:13.816Z,36.23
2018-05-09T09:58:13.835Z,35.48
2018-05-09T09:59:13.854Z,34.80
2018-05-09T10:00:13.870Z,34.68
2018-05-09T10:01:13.889Z,35.50
2018-05-09T10:02:13.908Z,34.62
2018-05-09T10:03:13.928Z,34.24
2018-05-09T10:04:13.948Z,33.89
2018-05-09T10:05:13.962Z,32.74
2018-05-09T10:06:13.980Z,31.99
2018-05-09T10:07:13.999Z,31.22
2018-05-09T10:08:14.018Z,31.67
2018-05-09T10:09:14.035Z,32.82
2018-05-09T10:10:14.054Z,32.06
2018-05-09T10:11:14.073Z,31.58
2018-05-09T10:12:14.089Z,31.01
2018-05-09T10:13:14.114Z,31.84
2018-05-09T10:14:14.127Z,33.75
2018-05-09T10:15:14.146Z,33.58
2018-05-09T10:16:14.179Z,34.42
2018-05-09T10:17:14.182Z,34.70
2018-05-09T10:18:14.201Z,34.21
2018-05-09T10:19:14.219Z,35.74
2018-05-09T10:20:14.237Z,37.21
2018-05-09T10:21:14.255Z,36.11
2018-05-09T10:22:14.275Z,35.80
2018-05-09T10:23:14.350Z,36.02
2018-05-09T10:24:14.309Z,36.21
2018-05-09T10:25:14.328Z,35.72
2018-05-09T10:26:14.345Z,36.15
2018-05-09T10:27:14.365Z,35.38
2018-05-09T10:28:14.381Z,35.68
2018-05-09T10:29:14.399Z,34.70
2018-05-09T10:30:14.417Z,35.68
2018-05-09T10:31:14.435Z,34.81
2018-05-09T10:32:14.457Z,33.95
2018-05-09T10:33:14.470Z,33.87
2018-05-09T10:34:14.488Z,34.24
2018-05-09T10:35:14.505Z,33.94
2018-05-09T10:36:14.522Z,33.54
2018-05-09T10:37:14.540Z,33.95
2018-05-09T10:38:14.558Z,32.48
2018-05-09T10:39:14.576Z,32.29
2018-05-09T10:40:14.592Z,32.30
2018-05-09T10:41:14.610Z,31.63
2018-05-09T10:42:14.627Z,31.32
2018-05-09T10:43:14.644Z,31.73
2018-05-09T10:44:14.661Z,31.54
2018-05-09T10:45:14.680Z,31.74
2018-05-09T10:46:14.697Z,30.78
2018-05-09T10:47:14.714Z,30.75
2018-05-09T10:48:14.733Z,30.36
2018-05-09T10:49:14.747Z,29.97
2018-05-09T10:50:14.765Z,30.43
2018-05-09T10:51:14.783Z,31.60
2018-05-09T10:52:14.799Z,31.60
2018-05-09T10:53:14.816Z,31.10
2018-05-09T10:54:14.833Z,32.66
2018-05-09T10:55:14.849Z,31.80
2018-05-09T10:56:14.866Z,31.32
2018-05-09T10:57:14.887Z,31.71
2018-05-09T10:58:14.900Z,31.62
2018-05-09T10:59:14.917Z,31.59
2018-05-09T11:00:14.933Z,32.53
2018-05-09T11:01:14.951Z,32.16
2018-05-09T11:02:14.968Z,31.67
2018-05-09T11:03:14.984Z,31.85
2018-05-09T11:04:15.000Z,31.48
2018-05-09T11:05:15.020Z,31.68
2018-05-09T11:06:15.033Z,31.75
2018-05-09T11:07:15.052Z,31.93
2018-05-09T11:08:15.065Z,32.32
2018-05-09T11:09:15.081Z,33.48
2018-05-09T11:10:15.101Z,33.46
2018-05-09T11:11:15.114Z,32.89
2018-05-09T11:12:15.129Z,32.11
2018-05-09T11:13:15.145Z,31.51
2018-05-09T11:14:15.160Z,32.19
2018-05-09T11:15:15.177Z,32.47
2018-05-09T11:16:15.192Z,33.53
2018-05-09T11:17:15.208Z,35.06
2018-05-09T11:18:15.223Z,35.05
2018-05-09T11:19:15.239Z,35.81
2018-05-09T11:20:15.253Z,36.57
2018-05-09T11:21:15.273Z,35.60
2018-05-09T11:22:15.284Z,35.91
2018-05-09T11:23:15.298Z,36.40
2018-05-09T11:24:15.396Z,34.76
2018-05-09T11:25:15.327Z,34.55
2018-05-09T11:26:15.341Z,34.55
2018-05-09T11:27:15.355Z,35.80
2018-05-09T11:28:15.369Z,35.31
2018-05-09T11:29:15.383Z,35.41
2018-05-09T11:30:15.397Z,36.30
2018-05-09T11:31:15.417Z,36.40
2018-05-09T11:32:15.428Z,35.42
2018-05-09T11:33:15.438Z,36.96
2018-05-09T11:34:15.451Z,37.18
2018-05-09T11:35:15.463Z,37.56
2018-05-09T11:36:15.477Z,37.56
2018-05-09T11:37:15.491Z,35.60
2018-05-09T11:38:15.504Z,37.74
2018-05-09T11:39:15.518Z,37.06
2018-05-09T11:40:15.531Z,35.99
2018-05-09T11:41:15.543Z,35.31
2018-05-09T11:42:15.556Z,35.99
2018-05-09T11:43:15.568Z,35.11
2018-05-09T11:44:15.580Z,34.92
2018-05-09T11:45:15.594Z,35.42
2018-05-09T11:46:15.606Z,35.13
2018-05-09T11:47:15.618Z,35.13
2018-05-09T11:48:15.630Z,35.80
2018-05-09T11:49:15.644Z,34.94
2018-05-09T11:50:15.655Z,35.02
2018-05-09T11:51:15.667Z,34.33
2018-05-09T11:52:15.679Z,33.65
2018-05-09T11:53:15.706Z,33.46
2018-05-09T11:54:15.703Z,35.11
2018-05-09T11:55:15.716Z,35.60
2018-05-09T11:56:15.728Z,35.39
2018-05-09T11:57:15.740Z,36.07
2018-05-09T11:58:15.755Z,35.31
2018-05-09T11:59:15.763Z,35.21
2018-05-09T12:00:15.775Z,35.21
2018-05-09T12:01:15.787Z,35.41
2018-05-09T12:02:15.806Z,35.80
2018-05-09T12:03:15.810Z,37.37
2018-05-09T12:04:15.824Z,36.10
2018-05-09T12:05:15.833Z,36.10
2018-05-09T12:06:15.844Z,35.61
2018-05-09T12:07:15.858Z,34.16
2018-05-09T12:08:15.873Z,33.77
2018-05-09T12:09:15.879Z,34.25
2018-05-09T12:10:15.904Z,35.50
2018-05-09T12:11:15.908Z,35.31
2018-05-09T12:12:15.913Z,35.19
2018-05-09T12:13:15.924Z,35.50
2018-05-09T12:14:15.938Z,36.28
2018-05-09T12:15:15.949Z,37.26
2018-05-09T12:16:15.958Z,37.54
2018-05-09T12:17:15.970Z,37.26
2018-05-09T12:18:15.982Z,36.28
2018-05-09T12:19:15.996Z,35.70
2018-05-09T12:20:16.005Z,35.41
2018-05-09T12:21:16.015Z,35.50
2018-05-09T12:22:16.032Z,36.77
2018-05-09T12:23:16.038Z,38.13
2018-05-09T12:24:16.049Z,38.73
2018-05-09T12:25:16.059Z,37.06
2018-05-09T12:26:16.075Z,36.67
2018-05-09T12:27:16.087Z,35.11
2018-05-09T12:28:16.092Z,35.80
2018-05-09T12:29:16.102Z,35.60
2018-05-09T12:30:16.113Z,35.60
2018-05-09T12:31:16.124Z,35.50
2018-05-09T12:32:16.135Z,35.99
2018-05-09T12:33:16.145Z,35.50
2018-05-09T12:34:16.159Z,35.99
2018-05-09T12:35:16.168Z,35.61
2018-05-09T12:36:16.193Z,36.00
2018-05-09T12:37:16.192Z,35.23
2018-05-09T12:38:16.200Z,35.13
2018-05-09T12:39:16.211Z,35.33
2018-05-09T12:40:16.220Z,36.30
2018-05-09T12:41:16.232Z,37.27
2018-05-09T12:42:16.243Z,37.48
2018-05-09T12:43:16.254Z,36.69
2018-05-09T12:44:16.264Z,36.96
2018-05-09T12:45:16.275Z,37.26
2018-05-09T12:46:16.285Z,37.93
2018-05-09T12:47:16.298Z,37.27
2018-05-09T12:48:16.306Z,38.64
2018-05-09T12:49:16.318Z,39.80
2018-05-09T12:50:16.331Z,38.15
2018-05-09T12:51:16.342Z,38.54
2018-05-09T12:52:16.351Z,38.05